sensor_id;sensor_type;location;lat;lon;timestamp;temperature;humidity
12704;DHT22;6416;52.182;7.650;2023-05-14T00:01:01;17.90;48.10
12704;DHT22;6416;52.182;7.650;2023-05-14T00:03:26;17.90;48.20
12704;DHT22;6416;52.182;7.650;2023-05-14T00:05:52;17.80;48.20
12704;DHT22;6416;52.182;7.650;2023-05-14T00:08:17;17.80;48.30
12704;DHT22;6416;52.182;7.650;2023-05-14T00:10:43;17.80;48.50
12704;DHT22;6416;52.182;7.650;2023-05-14T00:13:08;17.80;48.60
12704;DHT22;6416;52.182;7.650;2023-05-14T00:15:34;17.70;48.40
12704;DHT22;6416;52.182;7.650;2023-05-14T00:17:59;17.70;48.50
12704;DHT22;6416;52.182;7.650;2023-05-14T00:20:24;17.70;48.60
12704;DHT22;6416;52.182;7.650;2023-05-14T00:22:50;17.60;48.60
12704;DHT22;6416;52.182;7.650;2023-05-14T00:25:15;17.60;48.80
12704;DHT22;6416;52.182;7.650;2023-05-14T00:27:41;17.60;48.80
12704;DHT22;6416;52.182;7.650;2023-05-14T00:30:07;17.50;48.80
12704;DHT22;6416;52.182;7.650;2023-05-14T00:32:32;17.50;48.90
12704;DHT22;6416;52.182;7.650;2023-05-14T00:34:58;17.40;48.80
12704;DHT22;6416;52.182;7.650;2023-05-14T00:37:23;17.40;48.90
12704;DHT22;6416;52.182;7.650;2023-05-14T00:39:49;17.40;48.90
12704;DHT22;6416;52.182;7.650;2023-05-14T00:42:14;17.30;48.80
12704;DHT22;6416;52.182;7.650;2023-05-14T00:44:40;17.30;48.80
12704;DHT22;6416;52.182;7.650;2023-05-14T00:47:05;17.20;48.90
12704;DHT22;6416;52.182;7.650;2023-05-14T00:49:31;17.20;48.90
12704;DHT22;6416;52.182;7.650;2023-05-14T00:51:57;17.10;48.90
12704;DHT22;6416;52.182;7.650;2023-05-14T00:54:22;17.10;49.00
12704;DHT22;6416;52.182;7.650;2023-05-14T00:56:48;17.00;49.00
12704;DHT22;6416;52.182;7.650;2023-05-14T00:59:14;17.00;49.20
12704;DHT22;6416;52.182;7.650;2023-05-14T01:01:40;16.90;49.20
12704;DHT22;6416;52.182;7.650;2023-05-14T01:04:06;16.90;49.30
12704;DHT22;6416;52.182;7.650;2023-05-14T01:14:45;16.70;50.70
12704;DHT22;6416;52.182;7.650;2023-05-14T01:17:13;16.70;51.30
12704;DHT22;6416;52.182;7.650;2023-05-14T01:19:42;16.60;49.80
12704;DHT22;6416;52.182;7.650;2023-05-14T01:22:08;16.60;50.00
12704;DHT22;6416;52.182;7.650;2023-05-14T01:24:33;16.50;49.90
12704;DHT22;6416;52.182;7.650;2023-05-14T01:27:51;16.50;50.10
12704;DHT22;6416;52.182;7.650;2023-05-14T01:32:58;16.40;51.60
12704;DHT22;6416;52.182;7.650;2023-05-14T01:35:26;16.40;50.10
12704;DHT22;6416;52.182;7.650;2023-05-14T01:37:57;16.30;50.30
12704;DHT22;6416;52.182;7.650;2023-05-14T01:40:24;16.30;51.00
12704;DHT22;6416;52.182;7.650;2023-05-14T01:42:50;16.20;50.50
12704;DHT22;6416;52.182;7.650;2023-05-14T01:45:19;16.20;50.50
12704;DHT22;6416;52.182;7.650;2023-05-14T01:47:45;16.10;50.70
12704;DHT22;6416;52.182;7.650;2023-05-14T01:50:10;16.10;50.60
12704;DHT22;6416;52.182;7.650;2023-05-14T01:52:36;16.00;50.70
12704;DHT22;6416;52.182;7.650;2023-05-14T01:55:01;16.00;50.70
12704;DHT22;6416;52.182;7.650;2023-05-14T01:57:27;16.00;50.90
12704;DHT22;6416;52.182;7.650;2023-05-14T01:59:52;15.90;50.90
12704;DHT22;6416;52.182;7.650;2023-05-14T02:02:18;15.90;51.00
12704;DHT22;6416;52.182;7.650;2023-05-14T02:04:43;15.80;51.00
12704;DHT22;6416;52.182;7.650;2023-05-14T02:07:09;15.80;51.10
12704;DHT22;6416;52.182;7.650;2023-05-14T02:09:34;15.80;51.20
12704;DHT22;6416;52.182;7.650;2023-05-14T02:12:00;15.70;51.20
12704;DHT22;6416;52.182;7.650;2023-05-14T02:14:25;15.70;51.30
12704;DHT22;6416;52.182;7.650;2023-05-14T02:16:51;15.70;51.40
12704;DHT22;6416;52.182;7.650;2023-05-14T02:19:16;15.70;51.40
12704;DHT22;6416;52.182;7.650;2023-05-14T02:21:41;15.70;51.50
12704;DHT22;6416;52.182;7.650;2023-05-14T02:24:07;15.60;51.40
12704;DHT22;6416;52.182;7.650;2023-05-14T02:26:32;15.60;51.60
12704;DHT22;6416;52.182;7.650;2023-05-14T02:28:58;15.50;51.60
12704;DHT22;6416;52.182;7.650;2023-05-14T02:31:23;15.50;51.70
12704;DHT22;6416;52.182;7.650;2023-05-14T02:33:49;15.40;51.60
12704;DHT22;6416;52.182;7.650;2023-05-14T02:36:14;15.40;51.70
12704;DHT22;6416;52.182;7.650;2023-05-14T02:38:40;15.40;51.80
12704;DHT22;6416;52.182;7.650;2023-05-14T02:41:05;15.30;51.80
12704;DHT22;6416;52.182;7.650;2023-05-14T02:43:31;15.30;51.80
12704;DHT22;6416;52.182;7.650;2023-05-14T02:45:56;15.20;51.90
12704;DHT22;6416;52.182;7.650;2023-05-14T02:48:22;15.20;52.00
12704;DHT22;6416;52.182;7.650;2023-05-14T02:50:48;15.20;52.10
12704;DHT22;6416;52.182;7.650;2023-05-14T02:53:14;15.10;52.10
12704;DHT22;6416;52.182;7.650;2023-05-14T02:55:39;15.10;52.20
12704;DHT22;6416;52.182;7.650;2023-05-14T02:58:05;15.00;52.20
12704;DHT22;6416;52.182;7.650;2023-05-14T03:00:30;15.00;52.30
12704;DHT22;6416;52.182;7.650;2023-05-14T03:02:56;15.00;52.50
12704;DHT22;6416;52.182;7.650;2023-05-14T03:05:21;14.90;52.50
12704;DHT22;6416;52.182;7.650;2023-05-14T03:07:47;14.90;52.50
12704;DHT22;6416;52.182;7.650;2023-05-14T03:10:12;14.90;52.50
12704;DHT22;6416;52.182;7.650;2023-05-14T03:12:38;14.90;52.70
12704;DHT22;6416;52.182;7.650;2023-05-14T03:15:03;14.80;52.60
12704;DHT22;6416;52.182;7.650;2023-05-14T03:17:29;14.80;52.60
12704;DHT22;6416;52.182;7.650;2023-05-14T03:19:54;14.80;52.80
12704;DHT22;6416;52.182;7.650;2023-05-14T03:22:20;14.70;52.80
12704;DHT22;6416;52.182;7.650;2023-05-14T03:24:45;14.70;52.80
12704;DHT22;6416;52.182;7.650;2023-05-14T03:27:11;14.70;52.90
12704;DHT22;6416;52.182;7.650;2023-05-14T03:29:36;14.70;53.10
12704;DHT22;6416;52.182;7.650;2023-05-14T03:32:02;14.60;53.10
12704;DHT22;6416;52.182;7.650;2023-05-14T03:34:27;14.60;53.20
12704;DHT22;6416;52.182;7.650;2023-05-14T03:36:53;14.60;53.30
12704;DHT22;6416;52.182;7.650;2023-05-14T03:39:18;14.60;53.30
12704;DHT22;6416;52.182;7.650;2023-05-14T03:41:44;14.60;53.40
12704;DHT22;6416;52.182;7.650;2023-05-14T03:44:10;14.50;53.40
12704;DHT22;6416;52.182;7.650;2023-05-14T03:46:35;14.50;53.40
12704;DHT22;6416;52.182;7.650;2023-05-14T03:49:01;14.50;53.50
12704;DHT22;6416;52.182;7.650;2023-05-14T03:51:26;14.50;53.70
12704;DHT22;6416;52.182;7.650;2023-05-14T03:53:52;14.50;53.70
12704;DHT22;6416;52.182;7.650;2023-05-14T03:56:17;14.50;53.90
12704;DHT22;6416;52.182;7.650;2023-05-14T03:58:42;14.50;53.90
12704;DHT22;6416;52.182;7.650;2023-05-14T04:01:08;14.50;54.00
12704;DHT22;6416;52.182;7.650;2023-05-14T04:03:33;14.50;54.10
12704;DHT22;6416;52.182;7.650;2023-05-14T04:05:59;14.40;54.10
12704;DHT22;6416;52.182;7.650;2023-05-14T04:08:24;14.50;54.30
12704;DHT22;6416;52.182;7.650;2023-05-14T04:10:53;14.40;54.30
12704;DHT22;6416;52.182;7.650;2023-05-14T04:13:18;14.50;54.90
12704;DHT22;6416;52.182;7.650;2023-05-14T04:15:44;14.40;54.50
12704;DHT22;6416;52.182;7.650;2023-05-14T04:18:09;14.50;54.70
12704;DHT22;6416;52.182;7.650;2023-05-14T04:20:35;14.50;54.80
12704;DHT22;6416;52.182;7.650;2023-05-14T04:23:00;14.50;54.80
12704;DHT22;6416;52.182;7.650;2023-05-14T04:25:26;14.50;54.90
12704;DHT22;6416;52.182;7.650;2023-05-14T04:27:51;14.60;55.00
12704;DHT22;6416;52.182;7.650;2023-05-14T04:30:17;14.60;55.10
12704;DHT22;6416;52.182;7.650;2023-05-14T04:32:42;14.60;55.10
12704;DHT22;6416;52.182;7.650;2023-05-14T04:35:08;14.70;55.30
12704;DHT22;6416;52.182;7.650;2023-05-14T04:37:33;14.70;55.30
12704;DHT22;6416;52.182;7.650;2023-05-14T04:39:59;14.80;55.40
12704;DHT22;6416;52.182;7.650;2023-05-14T04:42:24;14.90;55.50
12704;DHT22;6416;52.182;7.650;2023-05-14T04:44:50;14.90;55.50
12704;DHT22;6416;52.182;7.650;2023-05-14T04:47:15;15.00;55.50
12704;DHT22;6416;52.182;7.650;2023-05-14T04:49:41;15.00;56.10
12704;DHT22;6416;52.182;7.650;2023-05-14T04:52:06;15.10;55.40
12704;DHT22;6416;52.182;7.650;2023-05-14T04:54:32;15.00;55.20
12704;DHT22;6416;52.182;7.650;2023-05-14T04:56:59;15.00;55.20
12704;DHT22;6416;52.182;7.650;2023-05-14T04:59:24;15.10;55.40
12704;DHT22;6416;52.182;7.650;2023-05-14T05:01:50;15.00;55.30
12704;DHT22;6416;52.182;7.650;2023-05-14T05:04:15;15.00;55.30
12704;DHT22;6416;52.182;7.650;2023-05-14T05:06:40;15.00;55.30
12704;DHT22;6416;52.182;7.650;2023-05-14T05:09:06;15.10;55.60
12704;DHT22;6416;52.182;7.650;2023-05-14T05:11:31;15.00;55.60
12704;DHT22;6416;52.182;7.650;2023-05-14T05:13:57;15.10;56.00
12704;DHT22;6416;52.182;7.650;2023-05-14T05:16:22;15.20;56.40
12704;DHT22;6416;52.182;7.650;2023-05-14T05:18:48;15.40;56.90
12704;DHT22;6416;52.182;7.650;2023-05-14T05:21:13;15.50;57.20
12704;DHT22;6416;52.182;7.650;2023-05-14T05:23:39;15.80;57.40
12704;DHT22;6416;52.182;7.650;2023-05-14T05:26:04;16.10;57.70
12704;DHT22;6416;52.182;7.650;2023-05-14T05:28:29;16.40;57.80
12704;DHT22;6416;52.182;7.650;2023-05-14T05:30:55;16.70;57.70
12704;DHT22;6416;52.182;7.650;2023-05-14T05:33:20;17.10;57.80
12704;DHT22;6416;52.182;7.650;2023-05-14T05:35:46;17.50;57.60
12704;DHT22;6416;52.182;7.650;2023-05-14T05:38:11;17.80;57.60
12704;DHT22;6416;52.182;7.650;2023-05-14T05:40:37;18.10;57.40
12704;DHT22;6416;52.182;7.650;2023-05-14T05:43:02;18.50;57.10
12704;DHT22;6416;52.182;7.650;2023-05-14T05:45:28;18.80;56.80
12704;DHT22;6416;52.182;7.650;2023-05-14T05:47:53;19.20;56.40
12704;DHT22;6416;52.182;7.650;2023-05-14T05:50:19;19.50;55.80
12704;DHT22;6416;52.182;7.650;2023-05-14T05:52:44;19.80;55.20
12704;DHT22;6416;52.182;7.650;2023-05-14T05:55:10;20.10;54.50
12704;DHT22;6416;52.182;7.650;2023-05-14T05:57:35;20.30;53.30
12704;DHT22;6416;52.182;7.650;2023-05-14T06:00:01;20.50;53.20
12704;DHT22;6416;52.182;7.650;2023-05-14T06:02:26;20.70;52.80
12704;DHT22;6416;52.182;7.650;2023-05-14T06:04:52;20.90;52.50
12704;DHT22;6416;52.182;7.650;2023-05-14T06:07:17;21.10;52.30
12704;DHT22;6416;52.182;7.650;2023-05-14T06:09:43;21.20;51.90
12704;DHT22;6416;52.182;7.650;2023-05-14T06:12:08;21.40;51.70
12704;DHT22;6416;52.182;7.650;2023-05-14T06:14:34;21.60;51.70
12704;DHT22;6416;52.182;7.650;2023-05-14T06:16:59;21.70;51.60
12704;DHT22;6416;52.182;7.650;2023-05-14T06:19:25;22.00;51.70
12704;DHT22;6416;52.182;7.650;2023-05-14T06:21:50;22.20;51.90
12704;DHT22;6416;52.182;7.650;2023-05-14T06:24:16;22.40;51.60
12704;DHT22;6416;52.182;7.650;2023-05-14T06:26:41;22.70;51.30
12704;DHT22;6416;52.182;7.650;2023-05-14T06:29:07;22.90;50.50
12704;DHT22;6416;52.182;7.650;2023-05-14T06:31:32;23.10;50.40
12704;DHT22;6416;52.182;7.650;2023-05-14T06:33:57;23.30;50.00
12704;DHT22;6416;52.182;7.650;2023-05-14T06:36:23;23.50;50.00
12704;DHT22;6416;52.182;7.650;2023-05-14T06:38:48;23.70;49.90
12704;DHT22;6416;52.182;7.650;2023-05-14T06:41:14;24.00;49.60
12704;DHT22;6416;52.182;7.650;2023-05-14T06:43:39;24.30;50.10
12704;DHT22;6416;52.182;7.650;2023-05-14T06:46:05;24.50;49.90
12704;DHT22;6416;52.182;7.650;2023-05-14T06:48:30;24.80;49.10
12704;DHT22;6416;52.182;7.650;2023-05-14T06:50:56;25.10;48.90
12704;DHT22;6416;52.182;7.650;2023-05-14T06:53:21;25.20;48.20
12704;DHT22;6416;52.182;7.650;2023-05-14T06:55:47;25.40;47.80
12704;DHT22;6416;52.182;7.650;2023-05-14T06:58:12;25.60;47.20
12704;DHT22;6416;52.182;7.650;2023-05-14T07:00:38;25.70;46.90
12704;DHT22;6416;52.182;7.650;2023-05-14T07:03:03;25.90;46.90
12704;DHT22;6416;52.182;7.650;2023-05-14T07:05:29;26.10;46.60
12704;DHT22;6416;52.182;7.650;2023-05-14T07:07:54;26.20;46.50
12704;DHT22;6416;52.182;7.650;2023-05-14T07:10:20;26.40;46.10
12704;DHT22;6416;52.182;7.650;2023-05-14T07:12:45;26.60;46.00
12704;DHT22;6416;52.182;7.650;2023-05-14T07:15:11;26.80;46.50
12704;DHT22;6416;52.182;7.650;2023-05-14T07:17:36;27.10;45.50
12704;DHT22;6416;52.182;7.650;2023-05-14T07:20:02;27.30;44.80
12704;DHT22;6416;52.182;7.650;2023-05-14T07:22:28;27.50;44.60
12704;DHT22;6416;52.182;7.650;2023-05-14T07:24:53;27.60;45.00
12704;DHT22;6416;52.182;7.650;2023-05-14T07:27:19;27.90;44.60
12704;DHT22;6416;52.182;7.650;2023-05-14T07:29:44;28.00;43.90
12704;DHT22;6416;52.182;7.650;2023-05-14T07:32:10;28.20;43.50
12704;DHT22;6416;52.182;7.650;2023-05-14T07:34:35;28.30;43.20
12704;DHT22;6416;52.182;7.650;2023-05-14T07:37:01;28.50;43.00
12704;DHT22;6416;52.182;7.650;2023-05-14T07:39:27;28.60;42.70
12704;DHT22;6416;52.182;7.650;2023-05-14T07:41:52;28.80;42.40
12704;DHT22;6416;52.182;7.650;2023-05-14T07:44:17;29.00;42.00
12704;DHT22;6416;52.182;7.650;2023-05-14T07:46:43;29.20;41.40
12704;DHT22;6416;52.182;7.650;2023-05-14T07:49:08;29.30;41.40
12704;DHT22;6416;52.182;7.650;2023-05-14T07:51:34;29.50;41.20
12704;DHT22;6416;52.182;7.650;2023-05-14T07:53:59;29.60;40.60
12704;DHT22;6416;52.182;7.650;2023-05-14T07:56:25;29.80;40.30
12704;DHT22;6416;52.182;7.650;2023-05-14T07:58:50;29.90;39.80
12704;DHT22;6416;52.182;7.650;2023-05-14T08:01:16;30.10;39.30
12704;DHT22;6416;52.182;7.650;2023-05-14T08:03:42;30.10;39.50
12704;DHT22;6416;52.182;7.650;2023-05-14T08:06:07;30.30;40.10
12704;DHT22;6416;52.182;7.650;2023-05-14T08:08:33;30.60;39.80
12704;DHT22;6416;52.182;7.650;2023-05-14T08:10:58;30.80;38.40
12704;DHT22;6416;52.182;7.650;2023-05-14T08:13:24;30.90;37.80
12704;DHT22;6416;52.182;7.650;2023-05-14T08:15:49;31.00;37.80
12704;DHT22;6416;52.182;7.650;2023-05-14T08:18:15;31.10;38.00
12704;DHT22;6416;52.182;7.650;2023-05-14T08:20:40;31.20;38.10
12704;DHT22;6416;52.182;7.650;2023-05-14T08:23:06;31.40;38.10
12704;DHT22;6416;52.182;7.650;2023-05-14T08:25:32;31.60;38.00
12704;DHT22;6416;52.182;7.650;2023-05-14T08:27:58;31.90;37.90
12704;DHT22;6416;52.182;7.650;2023-05-14T08:30:23;32.20;37.90
12704;DHT22;6416;52.182;7.650;2023-05-14T08:32:49;32.40;36.40
12704;DHT22;6416;52.182;7.650;2023-05-14T08:35:14;32.60;36.50
12704;DHT22;6416;52.182;7.650;2023-05-14T08:37:39;32.70;35.00
12704;DHT22;6416;52.182;7.650;2023-05-14T08:40:05;32.70;34.50
12704;DHT22;6416;52.182;7.650;2023-05-14T08:42:31;32.70;34.00
12704;DHT22;6416;52.182;7.650;2023-05-14T08:45:00;32.70;33.70
12704;DHT22;6416;52.182;7.650;2023-05-14T08:47:26;32.80;33.40
12704;DHT22;6416;52.182;7.650;2023-05-14T08:50:04;32.70;33.20
12704;DHT22;6416;52.182;7.650;2023-05-14T08:52:30;32.70;33.00
12704;DHT22;6416;52.182;7.650;2023-05-14T08:54:56;32.70;33.90
12704;DHT22;6416;52.182;7.650;2023-05-14T08:57:24;32.80;33.80
12704;DHT22;6416;52.182;7.650;2023-05-14T08:59:50;32.90;34.10
12704;DHT22;6416;52.182;7.650;2023-05-14T09:02:15;33.00;34.50
12704;DHT22;6416;52.182;7.650;2023-05-14T09:04:43;33.30;34.70
12704;DHT22;6416;52.182;7.650;2023-05-14T09:07:10;33.60;34.10
12704;DHT22;6416;52.182;7.650;2023-05-14T09:09:35;33.90;33.60
12704;DHT22;6416;52.182;7.650;2023-05-14T09:12:01;34.10;33.70
12704;DHT22;6416;52.182;7.650;2023-05-14T09:14:27;34.40;33.10
12704;DHT22;6416;52.182;7.650;2023-05-14T09:16:52;34.60;32.60
12704;DHT22;6416;52.182;7.650;2023-05-14T09:19:19;34.90;32.80
12704;DHT22;6416;52.182;7.650;2023-05-14T09:21:46;35.10;32.40
12704;DHT22;6416;52.182;7.650;2023-05-14T09:24:19;35.30;31.50
12704;DHT22;6416;52.182;7.650;2023-05-14T09:26:55;35.60;31.00
12704;DHT22;6416;52.182;7.650;2023-05-14T09:29:23;35.80;31.60
12704;DHT22;6416;52.182;7.650;2023-05-14T09:31:49;36.10;31.50
12704;DHT22;6416;52.182;7.650;2023-05-14T09:34:29;36.40;31.50
12704;DHT22;6416;52.182;7.650;2023-05-14T09:37:00;36.70;30.30
12704;DHT22;6416;52.182;7.650;2023-05-14T09:39:26;37.00;30.50
12704;DHT22;6416;52.182;7.650;2023-05-14T09:41:52;37.30;30.10
12704;DHT22;6416;52.182;7.650;2023-05-14T09:44:18;37.50;29.60
12704;DHT22;6416;52.182;7.650;2023-05-14T09:46:44;37.70;29.30
12704;DHT22;6416;52.182;7.650;2023-05-14T09:49:10;37.90;28.80
12704;DHT22;6416;52.182;7.650;2023-05-14T09:51:36;38.10;29.00
12704;DHT22;6416;52.182;7.650;2023-05-14T09:54:04;38.30;28.20
12704;DHT22;6416;52.182;7.650;2023-05-14T09:56:29;38.40;27.50
12704;DHT22;6416;52.182;7.650;2023-05-14T09:58:55;38.40;27.00
12704;DHT22;6416;52.182;7.650;2023-05-14T10:01:21;38.40;27.70
12704;DHT22;6416;52.182;7.650;2023-05-14T10:03:48;38.40;27.90
12704;DHT22;6416;52.182;7.650;2023-05-14T10:06:15;38.60;28.10
12704;DHT22;6416;52.182;7.650;2023-05-14T10:08:43;38.90;27.90
12704;DHT22;6416;52.182;7.650;2023-05-14T10:11:18;39.10;27.60
12704;DHT22;6416;52.182;7.650;2023-05-14T10:14:25;39.40;27.40
12704;DHT22;6416;52.182;7.650;2023-05-14T10:16:46;39.60;27.10
12704;DHT22;6416;52.182;7.650;2023-05-14T10:19:14;39.80;26.90
12704;DHT22;6416;52.182;7.650;2023-05-14T10:21:40;40.10;26.80
12704;DHT22;6416;52.182;7.650;2023-05-14T10:24:09;40.30;26.30
12704;DHT22;6416;52.182;7.650;2023-05-14T10:26:38;40.40;25.90
12704;DHT22;6416;52.182;7.650;2023-05-14T10:29:08;40.50;26.40
12704;DHT22;6416;52.182;7.650;2023-05-14T10:32:06;40.70;24.90
12704;DHT22;6416;52.182;7.650;2023-05-14T10:37:01;40.80;25.20
12704;DHT22;6416;52.182;7.650;2023-05-14T10:39:59;41.00;25.30
12704;DHT22;6416;52.182;7.650;2023-05-14T10:44:56;41.20;25.80
12704;DHT22;6416;52.182;7.650;2023-05-14T10:47:23;41.40;25.50
12704;DHT22;6416;52.182;7.650;2023-05-14T10:49:53;41.60;24.80
12704;DHT22;6416;52.182;7.650;2023-05-14T10:52:18;41.70;24.30
12704;DHT22;6416;52.182;7.650;2023-05-14T10:57:25;41.90;23.80
12704;DHT22;6416;52.182;7.650;2023-05-14T10:59:53;42.00;24.30
12704;DHT22;6416;52.182;7.650;2023-05-14T11:02:32;42.10;24.20
12704;DHT22;6416;52.182;7.650;2023-05-14T11:04:59;42.10;23.10
12704;DHT22;6416;52.182;7.650;2023-05-14T11:07:33;42.10;23.60
12704;DHT22;6416;52.182;7.650;2023-05-14T11:10:19;42.10;23.30
12704;DHT22;6416;52.182;7.650;2023-05-14T11:12:47;41.90;22.80
12704;DHT22;6416;52.182;7.650;2023-05-14T11:15:21;41.80;23.50
12704;DHT22;6416;52.182;7.650;2023-05-14T11:17:47;41.80;23.60
12704;DHT22;6416;52.182;7.650;2023-05-14T11:20:13;41.70;23.50
12704;DHT22;6416;52.182;7.650;2023-05-14T11:22:40;41.80;23.70
12704;DHT22;6416;52.182;7.650;2023-05-14T11:25:07;41.70;23.10
12704;DHT22;6416;52.182;7.650;2023-05-14T11:27:34;41.80;23.30
12704;DHT22;6416;52.182;7.650;2023-05-14T11:30:00;41.80;23.00
12704;DHT22;6416;52.182;7.650;2023-05-14T11:32:26;41.70;23.00
12704;DHT22;6416;52.182;7.650;2023-05-14T11:34:51;41.80;22.90
12704;DHT22;6416;52.182;7.650;2023-05-14T11:37:17;41.70;22.60
12704;DHT22;6416;52.182;7.650;2023-05-14T11:39:47;41.70;22.30
12704;DHT22;6416;52.182;7.650;2023-05-14T11:42:13;41.50;21.70
12704;DHT22;6416;52.182;7.650;2023-05-14T11:44:39;41.30;21.70
12704;DHT22;6416;52.182;7.650;2023-05-14T11:47:04;41.10;21.80
12704;DHT22;6416;52.182;7.650;2023-05-14T11:49:30;40.80;21.50
12704;DHT22;6416;52.182;7.650;2023-05-14T11:52:01;40.50;21.60
12704;DHT22;6416;52.182;7.650;2023-05-14T11:54:27;40.00;21.70
12704;DHT22;6416;52.182;7.650;2023-05-14T11:56:54;39.70;22.10
12704;DHT22;6416;52.182;7.650;2023-05-14T11:59:19;39.30;22.30
12704;DHT22;6416;52.182;7.650;2023-05-14T12:01:45;39.10;22.30
12704;DHT22;6416;52.182;7.650;2023-05-14T12:04:11;38.80;22.40
12704;DHT22;6416;52.182;7.650;2023-05-14T12:06:38;38.60;22.50
12704;DHT22;6416;52.182;7.650;2023-05-14T12:09:06;38.40;22.70
12704;DHT22;6416;52.182;7.650;2023-05-14T12:11:32;38.40;22.90
12704;DHT22;6416;52.182;7.650;2023-05-14T12:14:00;38.40;23.20
12704;DHT22;6416;52.182;7.650;2023-05-14T12:16:30;38.50;22.80
12704;DHT22;6416;52.182;7.650;2023-05-14T12:18:59;38.50;22.70
12704;DHT22;6416;52.182;7.650;2023-05-14T12:21:26;38.50;22.60
12704;DHT22;6416;52.182;7.650;2023-05-14T12:23:59;38.50;22.90
12704;DHT22;6416;52.182;7.650;2023-05-14T12:26:25;38.40;22.50
12704;DHT22;6416;52.182;7.650;2023-05-14T12:28:56;38.40;23.00
12704;DHT22;6416;52.182;7.650;2023-05-14T12:31:33;38.40;22.80
12704;DHT22;6416;52.182;7.650;2023-05-14T12:33:59;38.40;22.80
12704;DHT22;6416;52.182;7.650;2023-05-14T12:36:25;38.50;23.10
12704;DHT22;6416;52.182;7.650;2023-05-14T12:38:58;38.60;22.50
12704;DHT22;6416;52.182;7.650;2023-05-14T12:41:23;38.70;22.40
12704;DHT22;6416;52.182;7.650;2023-05-14T12:43:49;38.80;22.90
12704;DHT22;6416;52.182;7.650;2023-05-14T12:46:15;38.90;22.90
12704;DHT22;6416;52.182;7.650;2023-05-14T12:48:40;39.00;23.10
12704;DHT22;6416;52.182;7.650;2023-05-14T12:51:07;39.10;22.50
12704;DHT22;6416;52.182;7.650;2023-05-14T12:53:33;39.20;22.40
12704;DHT22;6416;52.182;7.650;2023-05-14T12:55:59;39.20;22.80
12704;DHT22;6416;52.182;7.650;2023-05-14T12:58:24;39.30;22.80
12704;DHT22;6416;52.182;7.650;2023-05-14T13:00:50;39.30;22.90
12704;DHT22;6416;52.182;7.650;2023-05-14T13:03:15;39.30;22.80
12704;DHT22;6416;52.182;7.650;2023-05-14T13:05:41;39.20;22.20
12704;DHT22;6416;52.182;7.650;2023-05-14T13:08:07;39.00;21.80
12704;DHT22;6416;52.182;7.650;2023-05-14T13:10:33;38.70;21.60
12704;DHT22;6416;52.182;7.650;2023-05-14T13:12:58;38.40;21.60
12704;DHT22;6416;52.182;7.650;2023-05-14T13:15:24;38.00;22.10
12704;DHT22;6416;52.182;7.650;2023-05-14T13:17:49;37.60;22.20
12704;DHT22;6416;52.182;7.650;2023-05-14T13:20:15;37.20;22.50
12704;DHT22;6416;52.182;7.650;2023-05-14T13:22:40;36.80;22.80
12704;DHT22;6416;52.182;7.650;2023-05-14T13:25:06;36.30;23.10
12704;DHT22;6416;52.182;7.650;2023-05-14T13:27:32;35.90;23.20
12704;DHT22;6416;52.182;7.650;2023-05-14T13:29:57;35.50;23.60
12704;DHT22;6416;52.182;7.650;2023-05-14T13:32:24;35.10;23.80
12704;DHT22;6416;52.182;7.650;2023-05-14T13:34:50;34.70;24.00
12704;DHT22;6416;52.182;7.650;2023-05-14T13:37:15;34.50;24.30
12704;DHT22;6416;52.182;7.650;2023-05-14T13:39:40;34.20;24.90
12704;DHT22;6416;52.182;7.650;2023-05-14T13:42:06;34.00;24.50
12704;DHT22;6416;52.182;7.650;2023-05-14T13:44:31;33.80;24.50
12704;DHT22;6416;52.182;7.650;2023-05-14T13:46:57;33.60;24.70
12704;DHT22;6416;52.182;7.650;2023-05-14T13:49:22;33.50;24.60
12704;DHT22;6416;52.182;7.650;2023-05-14T13:51:48;33.30;25.00
12704;DHT22;6416;52.182;7.650;2023-05-14T13:54:13;33.20;24.80
12704;DHT22;6416;52.182;7.650;2023-05-14T13:56:39;33.00;24.80
12704;DHT22;6416;52.182;7.650;2023-05-14T13:59:04;33.00;24.40
12704;DHT22;6416;52.182;7.650;2023-05-14T14:01:30;32.80;24.40
12704;DHT22;6416;52.182;7.650;2023-05-14T14:03:55;32.80;24.30
12704;DHT22;6416;52.182;7.650;2023-05-14T14:06:21;32.70;24.20
12704;DHT22;6416;52.182;7.650;2023-05-14T14:08:46;32.60;24.40
12704;DHT22;6416;52.182;7.650;2023-05-14T14:11:12;32.60;24.70
12704;DHT22;6416;52.182;7.650;2023-05-14T14:13:38;32.50;24.80
12704;DHT22;6416;52.182;7.650;2023-05-14T14:16:03;32.50;24.90
12704;DHT22;6416;52.182;7.650;2023-05-14T14:18:29;32.40;24.50
12704;DHT22;6416;52.182;7.650;2023-05-14T14:20:54;32.30;24.80
12704;DHT22;6416;52.182;7.650;2023-05-14T14:23:20;32.20;25.00
12704;DHT22;6416;52.182;7.650;2023-05-14T14:25:45;32.20;25.20
12704;DHT22;6416;52.182;7.650;2023-05-14T14:28:11;32.20;25.20
12704;DHT22;6416;52.182;7.650;2023-05-14T14:30:36;32.10;25.40
12704;DHT22;6416;52.182;7.650;2023-05-14T14:33:02;32.10;25.70
12704;DHT22;6416;52.182;7.650;2023-05-14T14:35:27;32.00;25.80
12704;DHT22;6416;52.182;7.650;2023-05-14T14:37:53;32.00;25.90
12704;DHT22;6416;52.182;7.650;2023-05-14T14:40:18;32.00;26.10
12704;DHT22;6416;52.182;7.650;2023-05-14T14:42:44;31.90;25.70
12704;DHT22;6416;52.182;7.650;2023-05-14T14:45:10;31.90;25.90
12704;DHT22;6416;52.182;7.650;2023-05-14T14:47:36;31.90;25.80
12704;DHT22;6416;52.182;7.650;2023-05-14T14:50:01;31.80;25.80
12704;DHT22;6416;52.182;7.650;2023-05-14T14:52:27;31.80;25.70
12704;DHT22;6416;52.182;7.650;2023-05-14T14:54:53;31.70;25.40
12704;DHT22;6416;52.182;7.650;2023-05-14T14:57:19;31.60;25.50
12704;DHT22;6416;52.182;7.650;2023-05-14T14:59:44;31.50;25.60
12704;DHT22;6416;52.182;7.650;2023-05-14T15:02:10;31.50;25.40
12704;DHT22;6416;52.182;7.650;2023-05-14T15:04:35;31.50;25.80
12704;DHT22;6416;52.182;7.650;2023-05-14T15:07:01;31.30;25.80
12704;DHT22;6416;52.182;7.650;2023-05-14T15:09:27;31.30;26.00
12704;DHT22;6416;52.182;7.650;2023-05-14T15:11:52;31.20;26.10
12704;DHT22;6416;52.182;7.650;2023-05-14T15:14:18;31.20;26.10
12704;DHT22;6416;52.182;7.650;2023-05-14T15:16:43;31.20;26.20
12704;DHT22;6416;52.182;7.650;2023-05-14T15:19:09;31.10;26.10
12704;DHT22;6416;52.182;7.650;2023-05-14T15:21:34;31.10;26.20
12704;DHT22;6416;52.182;7.650;2023-05-14T15:24:02;31.10;26.50
12704;DHT22;6416;52.182;7.650;2023-05-14T15:26:27;31.00;26.40
12704;DHT22;6416;52.182;7.650;2023-05-14T15:28:53;31.10;26.50
12704;DHT22;6416;52.182;7.650;2023-05-14T15:31:18;31.00;26.40
12704;DHT22;6416;52.182;7.650;2023-05-14T15:33:44;31.10;26.60
12704;DHT22;6416;52.182;7.650;2023-05-14T15:36:09;31.00;26.40
12704;DHT22;6416;52.182;7.650;2023-05-14T15:38:35;31.00;26.60
12704;DHT22;6416;52.182;7.650;2023-05-14T15:41:00;31.00;26.60
12704;DHT22;6416;52.182;7.650;2023-05-14T15:43:26;31.00;26.60
12704;DHT22;6416;52.182;7.650;2023-05-14T15:45:51;31.00;26.70
12704;DHT22;6416;52.182;7.650;2023-05-14T15:48:17;30.90;26.90
12704;DHT22;6416;52.182;7.650;2023-05-14T15:50:42;30.90;26.90
12704;DHT22;6416;52.182;7.650;2023-05-14T15:53:08;30.80;26.80
12704;DHT22;6416;52.182;7.650;2023-05-14T15:55:33;30.70;26.80
12704;DHT22;6416;52.182;7.650;2023-05-14T15:57:59;30.70;26.90